M I D A S
Marine Information and Data Acquisition System
Tripno 1470 of the Zeeleeuw from 2007-12-04 07:34:34 to 2007-12-04 13:11:10
Back to CruiseResearch ActivitiesStationsMapUnderway DataData graphs

EquipmentUnitsComment
TimeDGPSUTC
LatitudeDGPSDM.mWGS84
LongitudeDGPSDM.mWGS84
HeadingGyrodeg 
SOGDGPSknotsSpeed over ground
COGDGPSdegCourse over ground
DepthEcho soundermeters200 kHz
Missing or incorrect values are displayed as -999
Navigation data collected by the RV Zeeleeuw from 2007-12-04 07:35:02 to 2007-12-04 13:26:15
Time Latitude Longitude Heading SOG COG Depth
2007-12-04 07:36:08 51°13.605 2°56.064 116.2 2.1 294 -999
2007-12-04 07:37:08 51°13.626 2°55.99 121.1 3.6 298 -999
2007-12-04 07:38:08 51°13.658 2°55.903 121.2 4.2 299 -999
2007-12-04 07:39:08 51°13.686 2°55.807 108.3 3.6 287 -999
2007-12-04 07:40:07 51°13.695 2°55.734 94.8 1.4 273 15.5
2007-12-04 07:41:05 51°13.699 2°55.739 57.3 1.3 49 15.2
2007-12-04 07:42:07 51°13.689 2°55.727 33.7 1.2 212 -999
2007-12-04 07:43:07 51°13.716 2°55.72 340.9 3 337 14.1
2007-12-04 07:44:05 51°13.784 2°55.67 337.6 6.1 335 13.1
2007-12-04 07:45:04 51°13.899 2°55.578 336.7 8.9 334 13
2007-12-04 07:46:05 51°14.04 2°55.478 339.6 9.3 336 12.6
2007-12-04 07:47:08 51°14.187 2°55.365 333.2 9.4 328 -999
2007-12-04 07:48:07 51°14.297 2°55.184 311.8 9.9 310 12.6
2007-12-04 07:49:04 51°14.398 2°54.99 310.7 10.1 316 12.6
2007-12-04 07:50:05 51°14.452 2°54.753 265.3 9.8 265 13.6
2007-12-04 07:51:05 51°14.41 2°54.486 249.8 10.9 245 12.7
2007-12-04 07:52:04 51°14.34 2°54.223 248.4 10.9 244 11.2
2007-12-04 07:53:05 51°14.265 2°53.95 248.9 11.1 248 11.7
2007-12-04 07:54:05 51°14.183 2°53.686 242.9 11.1 242 11.9
2007-12-04 07:55:04 51°14.094 2°53.434 242.1 11.2 242 12
2007-12-04 07:56:04 51°14.004 2°53.172 242.2 11.3 246 12.6
2007-12-04 07:57:05 51°13.896 2°52.924 236.7 11.6 225 12.7
2007-12-04 07:58:04 51°13.783 2°52.693 234.4 11 236 12.4
2007-12-04 07:59:04 51°13.667 2°52.459 234 11.1 239 12.3
2007-12-04 08:00:05 51°13.551 2°52.223 235.1 11.3 231 12.9
2007-12-04 08:01:04 51°13.439 2°52.004 233 10.9 233 12.6
2007-12-04 08:02:05 51°13.329 2°51.783 235.2 9.5 233 12.8
2007-12-04 08:03:04 51°13.258 2°51.644 233.8 5.5 225 12.5
2007-12-04 08:04:05 51°13.194 2°51.518 242.3 4.7 240 12.6
2007-12-04 08:05:05 51°13.198 2°51.442 295.5 3.1 314 12.5
2007-12-04 08:06:05 51°13.256 2°51.361 315 5.6 332 13
2007-12-04 08:07:04 51°13.363 2°51.371 4.4 6.9 12 12.9
2007-12-04 08:08:04 51°13.448 2°51.403 357.8 3.1 20 13.7
2007-12-04 08:09:04 51°13.474 2°51.441 15.4 1.9 59 13.6
2007-12-04 08:10:04 51°13.488 2°51.484 29.7 1.9 69 13.6
2007-12-04 08:11:05 51°13.498 2°51.528 38.8 1.8 76 13.5
2007-12-04 08:12:04 51°13.506 2°51.57 42.7 1.7 76 13.4
2007-12-04 08:13:05 51°13.513 2°51.611 44.9 1.4 66 13.6
2007-12-04 08:14:05 51°13.518 2°51.652 46.2 1.7 80 13.7
2007-12-04 08:15:05 51°13.523 2°51.693 49.4 1.6 76 13.3
2007-12-04 08:16:04 51°13.535 2°51.789 105.3 5.1 103 13.2
2007-12-04 08:17:05 51°13.477 2°51.845 206.6 3.8 202 13.1
2007-12-04 08:18:05 51°13.409 2°51.771 222 5.9 212 13.2
2007-12-04 08:19:04 51°13.333 2°51.68 227.2 5.7 221 12.8
2007-12-04 08:20:05 51°13.261 2°51.566 234 5.9 234 12.6
2007-12-04 08:21:05 51°13.236 2°51.471 273.8 2.7 279 12.5
2007-12-04 08:22:05 51°13.269 2°51.387 300.2 4.4 311 13.2
2007-12-04 08:23:04 51°13.324 2°51.318 321.1 4.9 332 13.7
2007-12-04 08:24:05 51°13.404 2°51.31 350.7 3.9 11 13.7
2007-12-04 08:25:05 51°13.434 2°51.344 27.4 1.5 80 13.6
2007-12-04 08:26:08 51°13.44 2°51.383 49.4 1.6 73 -999
2007-12-04 08:27:06 51°13.447 2°51.422 55 1.9 85 13.5
2007-12-04 08:28:05 51°13.454 2°51.462 53.7 1.8 86 13.6
2007-12-04 08:29:05 51°13.461 2°51.502 57.1 1.5 61 13.4
2007-12-04 08:30:04 51°13.466 2°51.542 55.7 1.4 74 13.5
2007-12-04 08:31:05 51°13.471 2°51.582 53.7 1.4 77 13.5
2007-12-04 08:32:04 51°13.482 2°51.631 53.6 3.4 70 13.3
2007-12-04 08:33:04 51°13.548 2°51.777 55.5 10.3 56 13.1
2007-12-04 08:34:05 51°13.643 2°52.081 66.8 13.8 63 13.3
2007-12-04 08:35:05 51°13.749 2°52.407 63.7 13.8 65 13.1
2007-12-04 08:36:05 51°13.862 2°52.728 63.7 13.9 61 12.6
2007-12-04 08:37:04 51°13.969 2°53.041 62.5 13.6 62 12.7
2007-12-04 08:38:05 51°14.086 2°53.358 62.9 13.7 60 11.9
2007-12-04 08:39:04 51°14.2 2°53.667 63.1 14 65 11.9
2007-12-04 08:40:05 51°14.32 2°53.982 61.7 13.7 59 11.8
2007-12-04 08:41:04 51°14.436 2°54.285 61 13.6 57 11.9
2007-12-04 08:42:05 51°14.574 2°54.575 45 13.4 38 12.5
2007-12-04 08:43:05 51°14.77 2°54.72 11.8 12.9 11 11.8
2007-12-04 08:44:05 51°14.979 2°54.719 348.4 12.4 351 11.3
2007-12-04 08:45:05 51°15.181 2°54.657 346.7 12 351 57.6
2007-12-04 08:46:04 51°15.378 2°54.602 346 12.1 349 11.5
2007-12-04 08:47:05 51°15.576 2°54.529 343.9 12.1 347 12.1
2007-12-04 08:48:04 51°15.771 2°54.447 340.6 12.3 342 12.7
2007-12-04 08:49:05 51°15.966 2°54.343 339.3 12.2 341 13.4
2007-12-04 08:50:05 51°16.141 2°54.257 339.3 8.9 345 13.3
2007-12-04 08:51:05 51°16.224 2°54.241 345 2.8 12 13.7
2007-12-04 08:52:05 51°16.248 2°54.275 29.4 1.3 70 14
2007-12-04 08:53:06 51°16.252 2°54.306 51.2 1.2 73 -999
2007-12-04 08:54:06 51°16.256 2°54.339 58.4 1.4 79 13.6
2007-12-04 08:55:05 51°16.262 2°54.376 59.5 1.5 86 13.2
2007-12-04 08:56:05 51°16.27 2°54.415 55.8 1.6 69 13.3
2007-12-04 08:57:04 51°16.278 2°54.455 52 1.7 70 13.5
2007-12-04 08:58:05 51°16.288 2°54.496 39.3 1.6 72 13.6
2007-12-04 08:59:05 51°16.296 2°54.534 29.4 1.4 71 13.1
2007-12-04 09:00:05 51°16.302 2°54.573 30.3 1.5 73 13.3
2007-12-04 09:01:05 51°16.308 2°54.61 32.1 1.3 62 13.4
2007-12-04 09:02:05 51°16.314 2°54.648 34.6 1.7 83 13.3
2007-12-04 09:03:05 51°16.318 2°54.686 37 1.7 83 13.4
2007-12-04 09:04:05 51°16.322 2°54.722 36.8 1.5 84 13.5
2007-12-04 09:05:05 51°16.327 2°54.758 36 1.5 79 13.1
2007-12-04 09:06:05 51°16.331 2°54.795 38.8 1.8 93 13
2007-12-04 09:07:05 51°16.334 2°54.83 40 1.4 83 13
2007-12-04 09:08:05 51°16.338 2°54.866 41.5 1.2 81 13.1
2007-12-04 09:09:05 51°16.342 2°54.902 40.1 1.4 84 13
2007-12-04 09:10:05 51°16.345 2°54.938 40 1.5 83 13.3
2007-12-04 09:11:05 51°16.349 2°54.974 39.3 1.6 81 13.2
2007-12-04 09:12:06 51°16.369 2°55.048 72.5 4.9 78 13
2007-12-04 09:13:06 51°16.327 2°55.158 171.7 5 163 12.9
2007-12-04 09:14:04 51°16.266 2°55.091 235.8 5.6 235 12.9
2007-12-04 09:15:06 51°16.209 2°54.945 247 6.5 242 12.8
2007-12-04 09:16:06 51°16.169 2°54.781 252.5 6.8 257 13.2
2007-12-04 09:17:06 51°16.137 2°54.609 254.8 6.7 254 13.2
2007-12-04 09:18:05 51°16.12 2°54.438 271.2 6.1 276 12.7
2007-12-04 09:19:06 51°16.163 2°54.338 321.3 3.2 345 13.3
2007-12-04 09:20:05 51°16.21 2°54.338 331.2 2.4 5 13.3
2007-12-04 09:21:06 51°16.239 2°54.337 299.7 1.1 27 13.5
2007-12-04 09:22:09 51°16.247 2°54.383 313.2 1.9 79 -999
2007-12-04 09:23:07 51°16.25 2°54.426 328.1 1.7 81 13.3
2007-12-04 09:24:06 51°16.252 2°54.467 342.5 1.4 86 13.4
2007-12-04 09:25:05 51°16.255 2°54.505 357.1 1.4 82 13.4
2007-12-04 09:26:06 51°16.258 2°54.54 11.4 0.9 65 13.1
2007-12-04 09:27:06 51°16.262 2°54.575 22.8 1.5 80 13.4
2007-12-04 09:28:06 51°16.284 2°54.645 70.6 4.9 68 12.9
2007-12-04 09:29:05 51°16.248 2°54.747 171.6 4.5 163 13.1
2007-12-04 09:30:06 51°16.207 2°54.686 266.3 4 267 13
2007-12-04 09:31:06 51°16.219 2°54.564 258 5 259 13.3
2007-12-04 09:32:06 51°16.213 2°54.415 274.3 6.1 275 13.3
2007-12-04 09:33:06 51°16.241 2°54.285 286.7 3.4 303 13.1
2007-12-04 09:34:06 51°16.266 2°54.268 322.5 1.5 19 13.8
2007-12-04 09:35:06 51°16.288 2°54.291 349.4 1.7 41 13.6
2007-12-04 09:36:05 51°16.306 2°54.322 351.3 1.6 54 13
2007-12-04 09:37:06 51°16.319 2°54.357 349.3 1.5 65 13
2007-12-04 09:38:06 51°16.328 2°54.394 357.8 1.6 78 13.1
2007-12-04 09:39:04 51°16.332 2°54.43 17.1 1.2 76 13.4
2007-12-04 09:40:06 51°16.337 2°54.464 32.8 1.1 55 13
2007-12-04 09:41:06 51°16.362 2°54.504 9.4 2.5 25 13.5
2007-12-04 09:42:05 51°16.387 2°54.538 2.5 2.3 34 13
2007-12-04 09:43:05 51°16.464 2°54.618 49.3 8.2 54 13.4
2007-12-04 09:44:05 51°16.552 2°54.876 66.1 12.7 66 13.1
2007-12-04 09:45:05 51°16.639 2°55.204 71.2 13.7 65 12.9
2007-12-04 09:46:05 51°16.721 2°55.543 71.8 14.2 69 12
2007-12-04 09:47:05 51°16.806 2°55.881 71.3 13.7 67 12.2
2007-12-04 09:48:05 51°16.89 2°56.217 72.4 13.5 70 11.4
2007-12-04 09:49:05 51°16.974 2°56.554 71.6 13.5 66 11.6
2007-12-04 09:50:05 51°17.052 2°56.895 76.1 13.7 71 11.3
2007-12-04 09:51:05 51°17.155 2°57.213 53.6 13.5 49 11.1
2007-12-04 09:52:05 51°17.317 2°57.465 45.4 13.7 47 10.7
2007-12-04 09:53:05 51°17.481 2°57.714 45.6 13.7 45 10.5
2007-12-04 09:54:05 51°17.643 2°57.963 45 13.6 45 10.3
2007-12-04 09:55:05 51°17.792 2°58.23 59.6 13.5 59 10.3
2007-12-04 09:56:05 51°17.91 2°58.538 62.4 13.6 61 9.6
2007-12-04 09:57:05 51°18.025 2°58.843 63.3 13.4 57 10
2007-12-04 09:58:05 51°18.137 2°59.152 62.6 13.4 63 9.8
2007-12-04 09:59:05 51°18.254 2°59.456 63 13.5 58 9.8
2007-12-04 10:00:05 51°18.369 2°59.761 61.8 13.5 56 9.7
2007-12-04 10:01:05 51°18.486 3°0.063 61.7 13.5 55 9.9
2007-12-04 10:02:05 51°18.603 3°0.364 62.3 13.6 55 9.4
2007-12-04 10:03:05 51°18.716 3°0.664 59.6 13.2 58 9.8
2007-12-04 10:04:05 51°18.834 3°0.963 62.7 13.7 56 9.7
2007-12-04 10:05:05 51°18.953 3°1.265 60.5 13.8 58 9.6
2007-12-04 10:06:05 51°19.071 3°1.569 62.8 13.6 58 9.7
2007-12-04 10:07:05 51°19.192 3°1.872 61 13.7 51 9.5
2007-12-04 10:08:05 51°19.309 3°2.178 60.4 13.4 61 9.6
2007-12-04 10:09:05 51°19.428 3°2.483 60.7 13.5 57 9.7
2007-12-04 10:10:05 51°19.55 3°2.787 60.3 13.6 60 9.2
2007-12-04 10:11:05 51°19.667 3°3.095 62.4 13.6 57 9.4
2007-12-04 10:12:05 51°19.79 3°3.402 59.7 13.5 59 9.2
2007-12-04 10:13:05 51°19.91 3°3.707 61 13.8 57 9.4
2007-12-04 10:14:05 51°20.043 3°3.996 48.6 13.6 39 9.1
2007-12-04 10:15:05 51°20.212 3°4.232 43 13.3 36 8.9
2007-12-04 10:16:05 51°20.383 3°4.459 42.8 13.3 39 8.9
2007-12-04 10:17:05 51°20.555 3°4.684 43.5 13.3 39 9.2
2007-12-04 10:18:05 51°20.725 3°4.913 43.3 13.4 39 9.9
2007-12-04 10:19:05 51°20.862 3°5.185 71.9 13.3 69 10.1
2007-12-04 10:20:05 51°20.921 3°5.526 80.2 13.5 75 10.7
2007-12-04 10:21:05 51°20.987 3°5.867 80.2 13.5 74 10.3
2007-12-04 10:22:05 51°21.057 3°6.208 76.9 13.2 71 10.4
2007-12-04 10:23:05 51°21.128 3°6.546 77.5 13.2 74 10.2
2007-12-04 10:24:05 51°21.198 3°6.881 76.5 13.4 72 10.3
2007-12-04 10:25:05 51°21.27 3°7.218 74.4 13.5 75 10.6
2007-12-04 10:26:05 51°21.343 3°7.551 75.4 13.2 73 10.9
2007-12-04 10:27:05 51°21.425 3°7.877 67.7 13.4 58 10.9
2007-12-04 10:28:05 51°21.581 3°8.111 36.1 12.9 32 11.8
2007-12-04 10:29:05 51°21.765 3°8.292 33.2 12.9 26 12.2
2007-12-04 10:30:05 51°21.967 3°8.407 20.4 12.9 20 13.3
2007-12-04 10:31:05 51°22.176 3°8.434 355.8 12.8 354 13.9
2007-12-04 10:32:05 51°22.386 3°8.377 352.4 12.8 352 14
2007-12-04 10:33:05 51°22.596 3°8.331 354.8 12.7 351 14.2
2007-12-04 10:34:05 51°22.806 3°8.305 5.5 12.7 5 14.3
2007-12-04 10:35:05 51°22.995 3°8.45 45.7 13.2 41 14.3
2007-12-04 10:36:05 51°23.11 3°8.739 72.4 13 64 14.1
2007-12-04 10:37:05 51°23.166 3°9.071 79.5 12.9 77 15.7
2007-12-04 10:38:05 51°23.168 3°9.411 100.1 12.6 96 19.7
2007-12-04 10:39:05 51°23.145 3°9.75 98.1 12.7 94 15.8
2007-12-04 10:40:05 51°23.117 3°10.088 104.4 12.8 99 15.4
2007-12-04 10:41:05 51°23.056 3°10.412 115.4 12.8 111 14.8
2007-12-04 10:42:05 51°22.991 3°10.734 112.3 12.7 105 14.8
2007-12-04 10:43:05 51°22.926 3°11.059 110.1 12.7 106 14.7
2007-12-04 10:44:05 51°22.869 3°11.385 108.3 12.9 103 14.5
2007-12-04 10:45:05 51°22.817 3°11.717 110.1 12.8 106 14.8
2007-12-04 10:46:05 51°22.757 3°12.042 112.9 13 113 14.9
2007-12-04 10:47:05 51°22.662 3°12.339 125.4 12.5 121 14.9
2007-12-04 10:48:05 51°22.555 3°12.631 123 12.6 116 14.7
2007-12-04 10:49:05 51°22.46 3°12.92 119 10.7 117 14.7
2007-12-04 10:50:05 51°22.436 3°13.11 79.6 5.8 75 14
2007-12-04 10:51:05 51°22.491 3°13.179 11.5 4.1 8 13.9
2007-12-04 10:52:05 51°22.552 3°13.184 357.1 3.1 3 13.8
2007-12-04 10:53:05 51°22.594 3°13.189 0.8 1.7 12 13.4
2007-12-04 10:54:05 51°22.609 3°13.197 1.8 0.9 21 13.6
2007-12-04 10:55:05 51°22.622 3°13.208 356.7 0.9 35 13.3
2007-12-04 10:56:05 51°22.632 3°13.214 342.3 0.5 28 13.2
2007-12-04 10:57:05 51°22.639 3°13.221 333.7 0.3 351 13.4
2007-12-04 10:58:05 51°22.646 3°13.23 329.7 0.5 55 13.3
2007-12-04 10:59:05 51°22.65 3°13.242 326.6 0.4 65 13.2
2007-12-04 11:00:05 51°22.655 3°13.255 329.1 0.5 63 13.2
2007-12-04 11:01:05 51°22.659 3°13.268 332.6 0.7 52 13.1
2007-12-04 11:02:05 51°22.677 3°13.252 298.9 1.7 309 13
2007-12-04 11:03:05 51°22.68 3°13.201 253.2 2.6 249 13.2
2007-12-04 11:04:05 51°22.656 3°13.092 254.2 5.2 250 13.5
2007-12-04 11:05:06 51°22.628 3°12.912 256.3 8.8 254 13.8
2007-12-04 11:06:05 51°22.585 3°12.674 255.3 9.9 252 14.4
2007-12-04 11:07:05 51°22.534 3°12.394 255.8 12.2 253 15.1
2007-12-04 11:08:05 51°22.476 3°12.078 255.7 12.4 254 15.8
2007-12-04 11:09:05 51°22.428 3°11.826 250.7 6.3 252 16.8
2007-12-04 11:10:05 51°22.414 3°11.721 275.3 2.9 284 16.5
2007-12-04 11:11:05 51°22.435 3°11.667 307.3 2.6 315 16.7
2007-12-04 11:12:05 51°22.483 3°11.654 15.2 3.2 11 16
2007-12-04 11:13:05 51°22.519 3°11.712 77.1 3.2 65 16.6
2007-12-04 11:14:05 51°22.514 3°11.782 130.6 2.3 119 16.1
2007-12-04 11:15:05 51°22.49 3°11.818 166.2 1.8 151 16.1
2007-12-04 11:16:05 51°22.464 3°11.824 199 1.5 203 16.5
2007-12-04 11:17:05 51°22.443 3°11.802 232.5 1.7 222 16.5
2007-12-04 11:18:05 51°22.413 3°11.752 227.4 4.2 222 16.8
2007-12-04 11:19:05 51°22.357 3°11.637 241.6 6.2 239 17
2007-12-04 11:20:05 51°22.336 3°11.471 268.1 6.1 264 16.9
2007-12-04 11:21:05 51°22.309 3°11.328 264.1 5 267 17
2007-12-04 11:22:05 51°22.296 3°11.223 252.4 3.8 265 17.1
2007-12-04 11:23:05 51°22.306 3°11.179 302.2 0.8 342 17.4
2007-12-04 11:24:08 51°22.321 3°11.175 333.8 0.8 354 -999
2007-12-04 11:25:08 51°22.332 3°11.176 348.4 0.6 16 67.5
2007-12-04 11:26:07 51°22.342 3°11.178 357 0.6 18 16.9
2007-12-04 11:27:05 51°22.353 3°11.181 1 0.7 33 17
2007-12-04 11:28:05 51°22.365 3°11.185 5.4 0.8 7 16.7
2007-12-04 11:29:05 51°22.377 3°11.188 1.2 0.8 11 16.7
2007-12-04 11:30:05 51°22.388 3°11.193 0.2 0.6 10 16.6
2007-12-04 11:31:05 51°22.4 3°11.199 355.9 0.8 18 16.6
2007-12-04 11:32:05 51°22.413 3°11.207 352.7 0.9 27 16.6
2007-12-04 11:33:05 51°22.426 3°11.215 345.8 0.7 27 16.6
2007-12-04 11:34:05 51°22.437 3°11.225 342.8 0.9 34 16.5
2007-12-04 11:35:05 51°22.449 3°11.235 346.4 0.8 25 16.5
2007-12-04 11:36:05 51°22.466 3°11.242 2.2 1.8 5 16.3
2007-12-04 11:37:05 51°22.502 3°11.26 40 2.6 27 16.2
2007-12-04 11:38:05 51°22.526 3°11.312 92.2 2.9 88 16.8
2007-12-04 11:39:05 51°22.488 3°11.373 165.7 5.3 166 16.3
2007-12-04 11:40:05 51°22.352 3°11.409 193.7 7.4 204 16.6
2007-12-04 11:41:05 51°22.302 3°11.323 249.3 3.5 255 16.8
2007-12-04 11:42:05 51°22.309 3°11.286 307.1 0.7 343 17
2007-12-04 11:43:07 51°22.318 3°11.285 337.9 0.7 20 -999
2007-12-04 11:44:06 51°22.326 3°11.288 347.1 0.6 31 17
2007-12-04 11:45:05 51°22.333 3°11.29 351.1 0.5 346 17
2007-12-04 11:46:05 51°22.339 3°11.295 354.3 0.4 350 16.8
2007-12-04 11:47:05 51°22.347 3°11.301 357.8 0.7 20 16.9
2007-12-04 11:48:05 51°22.392 3°11.28 339.8 6.5 338 16.3
2007-12-04 11:49:05 51°22.542 3°11.208 345.5 11.4 340 15.9
2007-12-04 11:50:05 51°22.713 3°11.017 314.7 13.1 312 15.7
2007-12-04 11:51:05 51°22.823 3°10.723 297.1 13.2 297 14.6
2007-12-04 11:52:05 51°22.922 3°10.41 298 13.1 298 14.2
2007-12-04 11:53:05 51°23.019 3°10.101 293.5 12.7 289 14.6
2007-12-04 11:54:05 51°23.046 3°9.766 266.6 12.5 263 15.1
2007-12-04 11:55:05 51°22.978 3°9.444 248.2 12.9 250 19
2007-12-04 11:56:05 51°22.885 3°9.137 243.1 12.8 243 13.9
2007-12-04 11:57:05 51°22.796 3°8.824 245.4 12.9 243 13.7
2007-12-04 11:58:05 51°22.71 3°8.511 246.7 12.8 245 13.7
2007-12-04 11:59:05 51°22.618 3°8.203 243.1 13 246 13.4
2007-12-04 12:00:05 51°22.514 3°7.904 237.4 12.9 237 13.2
2007-12-04 12:01:05 51°22.403 3°7.613 237.4 13 239 13
2007-12-04 12:02:05 51°22.294 3°7.32 238.3 12.7 241 12.9
2007-12-04 12:03:05 51°22.202 3°7.009 243.7 12.9 245 12.6
2007-12-04 12:04:05 51°22.114 3°6.695 245 13.1 249 12.2
2007-12-04 12:05:05 51°22.025 3°6.385 244 12.9 248 12
2007-12-04 12:06:05 51°21.936 3°6.077 243.6 12.8 250 11.7
2007-12-04 12:07:05 51°21.846 3°5.771 244.9 12.7 246 11.7
2007-12-04 12:08:05 51°21.78 3°5.45 254.3 12.6 253 11.6
2007-12-04 12:09:05 51°21.723 3°5.124 252.8 12.7 253 11.7
2007-12-04 12:10:05 51°21.666 3°4.8 253.7 12.7 252 11.9
2007-12-04 12:11:05 51°21.603 3°4.477 251 12.7 255 11.5
2007-12-04 12:12:05 51°21.536 3°4.156 250.7 12.8 252 11.7
2007-12-04 12:13:05 51°21.457 3°3.842 245.9 12.7 247 11.4
2007-12-04 12:14:05 51°21.373 3°3.531 245.3 12.5 246 11.2
2007-12-04 12:15:05 51°21.29 3°3.22 246.1 12.7 247 11.2
2007-12-04 12:16:05 51°21.209 3°2.91 246.9 12.6 251 10.7
2007-12-04 12:17:05 51°21.126 3°2.603 246.5 12.6 246 11.1
2007-12-04 12:18:05 51°21.045 3°2.295 246.7 12.5 248 11.1
2007-12-04 12:19:05 51°20.967 3°1.983 246.7 12.6 248 10.9
2007-12-04 12:20:05 51°20.886 3°1.675 246.9 12.4 249 11
2007-12-04 12:21:05 51°20.804 3°1.365 246.2 12.6 246 10.8
2007-12-04 12:22:05 51°20.723 3°1.054 246.2 12.8 248 10.7
2007-12-04 12:23:05 51°20.641 3°0.739 245.3 12.9 243 10.5
2007-12-04 12:24:05 51°20.56 3°0.426 246.6 12.7 245 10.6
2007-12-04 12:25:05 51°20.484 3°0.113 247.6 12.6 249 10.7
2007-12-04 12:26:05 51°20.404 2°59.804 246 12.4 248 10.4
2007-12-04 12:27:05 51°20.323 2°59.498 245.3 12.3 247 10.4
2007-12-04 12:28:05 51°20.242 2°59.19 245.8 12.6 247 10.4
2007-12-04 12:29:05 51°20.16 2°58.879 246.7 12.8 246 10.3
2007-12-04 12:30:05 51°20.078 2°58.566 246.2 12.8 246 10.7
2007-12-04 12:31:05 51°19.995 2°58.255 245.5 12.6 244 10.8
2007-12-04 12:32:05 51°19.913 2°57.945 246.6 12.7 244 10.6
2007-12-04 12:33:05 51°19.833 2°57.633 248 12.6 242 11
2007-12-04 12:34:05 51°19.737 2°57.336 239.8 12.6 240 11
2007-12-04 12:35:05 51°19.638 2°57.04 239.9 12.5 239 11.3
2007-12-04 12:36:05 51°19.542 2°56.747 241.5 12.6 240 11
2007-12-04 12:37:05 51°19.443 2°56.454 241 12.6 243 11
2007-12-04 12:38:06 51°19.345 2°56.154 241.6 12.7 241 10.9
2007-12-04 12:39:06 51°19.248 2°55.862 240.2 12.5 242 10.9
2007-12-04 12:40:06 51°19.151 2°55.569 242.4 12.5 242 11
2007-12-04 12:41:06 51°19.055 2°55.275 240.7 12.5 240 10.7
2007-12-04 12:42:06 51°18.957 2°54.983 241.4 12.5 243 10.8
2007-12-04 12:43:06 51°18.86 2°54.689 242.3 12.4 243 10.9
2007-12-04 12:44:06 51°18.761 2°54.397 240.9 12.4 240 11
2007-12-04 12:45:06 51°18.662 2°54.105 241.3 12.4 242 10.9
2007-12-04 12:46:06 51°18.562 2°53.813 241.1 12.6 242 10.7
2007-12-04 12:47:06 51°18.461 2°53.52 240.6 12.6 240 10.8
2007-12-04 12:48:06 51°18.362 2°53.227 241.3 12.5 242 11
2007-12-04 12:49:06 51°18.262 2°52.933 242.7 12.5 243 10.8
2007-12-04 12:50:06 51°18.123 2°52.697 213.8 12 209 10.4
2007-12-04 12:51:06 51°17.933 2°52.569 201.7 12.4 201 10.2
2007-12-04 12:52:06 51°17.743 2°52.442 203.7 12.1 203 10.2
2007-12-04 12:53:06 51°17.552 2°52.31 203.6 12.6 199 10.3
2007-12-04 12:54:06 51°17.35 2°52.259 180.4 12.3 178 10.2
2007-12-04 12:55:06 51°17.155 2°52.346 160 11.9 161 10.1
2007-12-04 12:56:06 51°16.96 2°52.456 162.9 12.5 166 9.4
2007-12-04 12:57:06 51°16.768 2°52.563 161.4 12.1 162 9.9
2007-12-04 12:58:06 51°16.573 2°52.668 163 12.5 163 11.3
2007-12-04 12:59:06 51°16.381 2°52.792 154.7 13 154 11.5
2007-12-04 13:00:06 51°16.194 2°52.936 152.3 12.6 150 11.6
2007-12-04 13:01:06 51°16.009 2°53.09 152.6 12.6 153 11.4
2007-12-04 13:02:06 51°15.823 2°53.24 153.7 12.6 151 11.2
2007-12-04 13:03:06 51°15.641 2°53.392 152.9 12.2 155 10.7
2007-12-04 13:04:06 51°15.457 2°53.539 151.9 12 155 10.1
2007-12-04 13:05:06 51°15.279 2°53.705 150.3 11.8 149 9.6
2007-12-04 13:06:06 51°15.101 2°53.873 148 12.4 147 9.1
2007-12-04 13:07:06 51°14.941 2°54.072 138.6 11.9 139 9.1
2007-12-04 13:08:05 51°14.797 2°54.294 137.7 11.9 136 9.3
2007-12-04 13:09:05 51°14.657 2°54.535 134.6 12.7 132 9.6
2007-12-04 13:10:06 51°14.52 2°54.788 132.9 12.2 129 9.7
2007-12-04 13:11:05 51°14.389 2°55.028 128.5 12.2 128 10
2007-12-04 13:12:05 51°14.279 2°55.234 133.8 8.9 134 10.3
2007-12-04 13:13:05 51°14.19 2°55.349 149.8 5.1 148 10.6
2007-12-04 13:14:05 51°14.129 2°55.398 155.9 3.4 154 9.5
2007-12-04 13:15:05 51°14.085 2°55.433 155.4 2.8 152 8.9
2007-12-04 13:16:05 51°14.041 2°55.468 155.3 3 153 9.1
2007-12-04 13:17:05 51°13.996 2°55.506 157 3.2 153 9.8
2007-12-04 13:18:05 51°13.948 2°55.544 157.5 3.3 154 10.4
2007-12-04 13:19:06 51°13.886 2°55.589 157.4 4.7 157 10.1
2007-12-04 13:20:05 51°13.813 2°55.648 151.5 5.2 150 10.4
2007-12-04 13:21:05 51°13.742 2°55.73 141.1 5.2 139 -999
2007-12-04 13:22:06 51°13.682 2°55.834 130.3 5.1 129 9.3
2007-12-04 13:23:05 51°13.637 2°55.938 124.3 4.6 123 9.4
2007-12-04 13:24:05 51°13.607 2°56.032 111.5 3.4 108 9.8
2007-12-04 13:25:05 51°13.599 2°56.084 106.6 0.9 103 7.5
2007-12-04 13:26:05 51°13.598 2°56.093 117.6 0.1 102 7.2